createdAt,value
2023-02-28T00:01:26.290Z,49.58
2023-02-28T00:03:55.620Z,49.72
2023-02-28T00:06:23.629Z,51.07
2023-02-28T00:08:51.395Z,50.86
2023-02-28T00:11:20.376Z,50.50
2023-02-28T00:13:49.281Z,50.93
2023-02-28T00:16:19.373Z,50.75
2023-02-28T00:18:48.365Z,50.39
2023-02-28T00:21:18.857Z,51.20
2023-02-28T00:23:46.985Z,50.47
2023-02-28T00:26:15.032Z,50.79
2023-02-28T00:28:46.485Z,51.10
2023-02-28T00:31:14.338Z,50.91
2023-02-28T00:33:42.277Z,50.79
2023-02-28T00:36:12.761Z,50.58
2023-02-28T00:38:42.985Z,50.17
2023-02-28T00:41:11.287Z,49.67
2023-02-28T00:43:40.451Z,49.60
2023-02-28T00:46:09.142Z,49.07
2023-02-28T00:48:37.509Z,49.21
2023-02-28T00:51:06.094Z,49.85
2023-02-28T00:53:34.489Z,51.12
2023-02-28T00:56:04.590Z,51.79
2023-02-28T00:58:34.413Z,50.60
2023-02-28T01:01:02.377Z,51.38
2023-02-28T01:03:30.714Z,51.72
2023-02-28T01:06:00.536Z,51.72
2023-02-28T01:08:28.596Z,51.75
2023-02-28T01:10:56.742Z,52.02
2023-02-28T01:13:26.496Z,52.39
2023-02-28T01:15:58.048Z,51.89
2023-02-28T01:18:26.591Z,52.23
2023-02-28T01:20:55.074Z,52.81
2023-02-28T01:23:24.724Z,52.76
2023-02-28T01:25:52.878Z,52.81
2023-02-28T01:28:21.301Z,52.83
2023-02-28T01:30:53.850Z,53.35
2023-02-28T01:33:22.033Z,53.91
2023-02-28T01:35:49.933Z,53.56
2023-02-28T01:38:22.851Z,53.83
2023-02-28T01:40:51.764Z,53.49
2023-02-28T01:43:25.444Z,53.18
2023-02-28T01:45:55.745Z,53.15
2023-02-28T01:48:27.879Z,53.14
2023-02-28T01:51:00.874Z,53.63
2023-02-28T01:53:35.851Z,52.84
2023-02-28T01:56:08.453Z,51.68
2023-02-28T01:58:38.756Z,51.94
2023-02-28T02:01:08.150Z,51.66
2023-02-28T02:03:38.258Z,52.11
2023-02-28T02:06:06.727Z,51.71
2023-02-28T02:08:34.646Z,52.27
2023-02-28T02:11:04.389Z,51.88
2023-02-28T02:14:06.611Z,52.42
2023-02-28T02:16:51.223Z,51.85
2023-02-28T02:19:48.210Z,52.79
2023-02-28T02:22:42.054Z,53.35
2023-02-28T02:25:35.154Z,52.99
2023-02-28T02:28:36.271Z,53.12
2023-02-28T02:31:31.084Z,54.06
2023-02-28T02:34:26.270Z,53.90
2023-02-28T02:37:02.791Z,53.39
2023-02-28T02:39:36.448Z,53.25
2023-02-28T02:42:13.878Z,54.51
2023-02-28T02:44:46.475Z,54.67
2023-02-28T02:47:17.858Z,53.97
2023-02-28T02:49:52.405Z,52.88
2023-02-28T02:52:25.287Z,52.85
2023-02-28T02:54:57.509Z,53.45
2023-02-28T02:57:31.680Z,53.65
2023-02-28T03:00:05.381Z,53.87
2023-02-28T03:02:35.226Z,53.64
2023-02-28T03:05:08.538Z,52.11
2023-02-28T03:07:36.436Z,52.42
2023-02-28T03:10:04.938Z,51.46
2023-02-28T03:12:42.418Z,51.35
2023-02-28T03:15:19.531Z,51.25
2023-02-28T03:17:59.992Z,52.07
2023-02-28T03:20:37.571Z,53.20
2023-02-28T03:23:15.343Z,52.76
2023-02-28T03:25:54.673Z,53.67
2023-02-28T03:28:32.837Z,53.29
2023-02-28T03:31:10.117Z,52.81
2023-02-28T03:33:43.001Z,53.26
2023-02-28T03:36:15.926Z,54.04
2023-02-28T03:38:48.248Z,54.37
2023-02-28T03:41:19.608Z,54.81
2023-02-28T03:43:53.014Z,54.72
2023-02-28T03:46:38.180Z,54.35
2023-02-28T03:49:13.339Z,54.72
2023-02-28T03:51:44.872Z,55.07
2023-02-28T03:54:18.367Z,54.25
2023-02-28T03:56:54.806Z,54.18
2023-02-28T03:59:28.901Z,54.49
2023-02-28T04:01:59.328Z,53.83
2023-02-28T04:04:27.910Z,53.90
2023-02-28T04:07:03.937Z,53.65
2023-02-28T04:09:31.736Z,52.74
2023-02-28T04:11:59.637Z,52.74
2023-02-28T04:14:27.692Z,52.72
2023-02-28T04:16:55.802Z,53.40
2023-02-28T04:19:23.684Z,53.34
2023-02-28T04:21:53.646Z,53.67
2023-02-28T04:24:24.400Z,54.02
2023-02-28T04:26:54.091Z,53.37
2023-02-28T04:29:23.804Z,53.08
2023-02-28T04:31:52.326Z,52.76
2023-02-28T04:34:20.883Z,52.65
2023-02-28T04:36:59.644Z,52.72
2023-02-28T04:39:37.118Z,52.86
2023-02-28T04:42:05.070Z,52.08
2023-02-28T04:44:33.546Z,52.15
2023-02-28T04:47:01.503Z,51.82
2023-02-28T04:49:29.584Z,51.47
2023-02-28T04:51:57.754Z,52.82
2023-02-28T04:54:25.711Z,53.58
2023-02-28T04:56:55.745Z,53.86
2023-02-28T04:59:23.680Z,53.00
2023-02-28T05:01:51.683Z,52.75
2023-02-28T05:04:19.694Z,52.72
2023-02-28T05:06:47.892Z,52.94
2023-02-28T05:09:16.142Z,52.00
2023-02-28T05:11:44.219Z,51.96
2023-02-28T05:14:15.824Z,52.16
2023-02-28T05:16:43.955Z,52.70
2023-02-28T05:19:12.463Z,51.48
2023-02-28T05:21:42.368Z,51.80
2023-02-28T05:24:13.396Z,52.05
2023-02-28T05:26:43.682Z,51.97
2023-02-28T05:29:13.144Z,52.11
2023-02-28T05:31:41.212Z,51.35
2023-02-28T05:34:09.302Z,51.87
2023-02-28T05:36:39.212Z,56.88
2023-02-28T05:39:08.304Z,57.08
2023-02-28T05:41:36.256Z,55.91
2023-02-28T05:44:04.434Z,56.53
2023-02-28T05:46:33.717Z,55.04
2023-02-28T05:49:01.921Z,56.47
2023-02-28T05:51:30.268Z,55.94
2023-02-28T05:54:02.188Z,54.86
2023-02-28T05:56:30.680Z,55.60
2023-02-28T05:58:58.620Z,54.96
2023-02-28T06:01:35.159Z,54.90
2023-02-28T06:04:04.197Z,54.65
2023-02-28T06:06:32.990Z,54.37
2023-02-28T06:09:02.200Z,54.80
2023-02-28T06:11:30.359Z,54.31
2023-02-28T06:14:00.619Z,55.02
2023-02-28T06:16:29.271Z,56.97
2023-02-28T06:19:00.115Z,56.52
2023-02-28T06:21:29.707Z,55.87
2023-02-28T06:23:59.551Z,54.93
2023-02-28T06:26:27.840Z,55.90
2023-02-28T06:28:56.556Z,55.57
2023-02-28T06:31:26.844Z,55.37
2023-02-28T06:33:54.899Z,55.43
2023-02-28T06:36:24.535Z,54.67
2023-02-28T06:38:55.722Z,54.30
2023-02-28T06:41:24.838Z,54.63
2023-02-28T06:43:53.182Z,55.78
2023-02-28T06:46:21.660Z,55.08
2023-02-28T06:48:49.620Z,54.92
2023-02-28T06:51:21.273Z,54.88
2023-02-28T06:53:50.592Z,55.26
2023-02-28T06:56:19.477Z,54.60
2023-02-28T06:58:49.354Z,53.94
2023-02-28T07:01:17.627Z,53.78
2023-02-28T07:03:45.534Z,53.88
2023-02-28T07:06:14.180Z,53.81
2023-02-28T07:08:42.345Z,53.74
2023-02-28T07:11:11.688Z,53.74
2023-02-28T07:13:39.655Z,51.70
2023-02-28T07:16:09.917Z,51.33
2023-02-28T07:18:38.283Z,51.58
2023-02-28T07:21:10.528Z,51.41
2023-02-28T07:23:40.083Z,52.72
2023-02-28T07:26:08.924Z,54.02
2023-02-28T07:28:39.151Z,53.67
2023-02-28T07:31:08.186Z,53.09
2023-02-28T07:33:38.400Z,52.87
2023-02-28T07:36:09.406Z,51.62
2023-02-28T07:38:38.580Z,50.88
2023-02-28T07:41:06.883Z,51.11
2023-02-28T07:43:34.897Z,50.31
2023-02-28T07:46:06.078Z,50.20
2023-02-28T07:48:34.487Z,50.50
2023-02-28T07:51:03.509Z,50.54
2023-02-28T07:53:32.247Z,50.97
2023-02-28T07:56:01.844Z,50.99
2023-02-28T07:58:30.963Z,50.78
2023-02-28T08:00:59.360Z,50.38
2023-02-28T08:03:28.627Z,50.84
2023-02-28T08:05:56.805Z,49.64
2023-02-28T08:08:24.918Z,48.87
2023-02-28T08:10:53.029Z,49.16
2023-02-28T08:13:20.811Z,48.60
2023-02-28T08:15:48.720Z,48.93
2023-02-28T08:18:16.612Z,48.17
2023-02-28T08:20:46.036Z,47.45
2023-02-28T08:23:14.328Z,48.85
2023-02-28T08:25:42.667Z,49.42
2023-02-28T08:28:10.722Z,49.61
2023-02-28T08:30:42.608Z,48.58
2023-02-28T08:33:10.883Z,47.30
2023-02-28T08:35:39.125Z,47.68
2023-02-28T08:38:08.590Z,47.41
2023-02-28T08:40:36.468Z,47.15
2023-02-28T08:43:05.110Z,46.03
2023-02-28T08:45:33.071Z,45.34
2023-02-28T08:48:02.812Z,47.03
2023-02-28T08:50:31.192Z,46.62
2023-02-28T08:53:02.463Z,48.24
2023-02-28T08:55:31.981Z,48.75
2023-02-28T08:58:00.432Z,46.81
2023-02-28T09:00:28.477Z,46.89
2023-02-28T09:02:56.573Z,46.07
2023-02-28T09:05:24.490Z,45.09
2023-02-28T09:07:52.403Z,45.23
2023-02-28T09:10:20.530Z,45.72
2023-02-28T09:12:49.984Z,44.97
2023-02-28T09:15:18.117Z,45.53
2023-02-28T09:17:47.218Z,46.66
2023-02-28T09:20:18.100Z,45.87
2023-02-28T09:22:46.074Z,45.22
2023-02-28T09:25:13.943Z,45.13
2023-02-28T09:27:42.413Z,43.62
2023-02-28T09:30:14.371Z,44.75
2023-02-28T09:32:42.286Z,44.08
2023-02-28T09:35:14.334Z,43.13
2023-02-28T09:37:42.291Z,42.80
2023-02-28T09:40:12.136Z,42.20
2023-02-28T09:42:41.186Z,43.20
2023-02-28T09:45:28.919Z,42.35
2023-02-28T09:48:01.220Z,42.40
2023-02-28T09:50:35.716Z,42.43
2023-02-28T09:53:08.258Z,41.81
2023-02-28T09:55:47.063Z,41.43
2023-02-28T09:58:23.148Z,43.49
2023-02-28T10:01:00.217Z,43.32
2023-02-28T10:03:35.387Z,41.92
2023-02-28T10:06:14.355Z,40.76
2023-02-28T10:08:49.662Z,41.87
2023-02-28T10:11:21.645Z,42.16
2023-02-28T10:13:56.935Z,40.72
2023-02-28T10:16:32.209Z,40.22
2023-02-28T10:19:06.550Z,39.98
2023-02-28T10:21:40.540Z,40.56
2023-02-28T10:24:21.961Z,38.93
2023-02-28T10:26:50.814Z,38.92
2023-02-28T10:29:18.722Z,38.48
2023-02-28T10:31:48.434Z,37.30
2023-02-28T10:34:16.569Z,37.13
2023-02-28T10:36:45.774Z,36.92
2023-02-28T10:39:39.848Z,37.36
2023-02-28T10:42:22.042Z,38.86
2023-02-28T10:44:50.203Z,39.54
2023-02-28T10:47:21.633Z,39.34
2023-02-28T10:49:50.759Z,37.17
2023-02-28T10:52:38.956Z,36.78
2023-02-28T10:55:22.013Z,36.66
2023-02-28T10:57:49.999Z,36.67
2023-02-28T11:00:22.494Z,35.15
2023-02-28T11:02:51.785Z,35.65
2023-02-28T11:05:29.047Z,34.89
2023-02-28T11:07:58.991Z,35.27
2023-02-28T11:10:31.944Z,36.13
2023-02-28T11:13:01.360Z,34.62
2023-02-28T11:15:31.106Z,34.32
2023-02-28T11:18:03.474Z,32.86
2023-02-28T11:20:34.590Z,32.83
2023-02-28T11:23:05.241Z,32.13
2023-02-28T11:25:35.670Z,33.92
2023-02-28T11:28:07.600Z,33.83
2023-02-28T11:30:38.840Z,32.53
2023-02-28T11:33:30.355Z,32.53
2023-02-28T11:36:02.949Z,33.32
2023-02-28T11:38:31.139Z,33.56
2023-02-28T11:41:14.181Z,32.77
2023-02-28T11:44:01.291Z,35.41
2023-02-28T11:46:36.595Z,35.36
2023-02-28T11:49:22.986Z,35.50
2023-02-28T11:51:57.207Z,35.97
2023-02-28T11:54:37.789Z,36.32
2023-02-28T11:57:18.191Z,34.82
2023-02-28T11:59:58.605Z,36.78
2023-02-28T12:02:30.828Z,36.52
2023-02-28T12:05:19.296Z,35.38
2023-02-28T12:07:58.751Z,35.25
2023-02-28T12:10:29.020Z,35.36
2023-02-28T12:13:09.615Z,35.71
2023-02-28T12:16:06.604Z,36.09
2023-02-28T12:18:49.349Z,36.41
2023-02-28T12:21:30.746Z,35.33
2023-02-28T12:24:31.178Z,35.19
2023-02-28T12:27:02.922Z,34.20
2023-02-28T12:29:33.127Z,34.31
2023-02-28T12:32:06.785Z,34.75
2023-02-28T12:34:39.677Z,35.36
2023-02-28T12:37:17.365Z,34.45
2023-02-28T12:39:51.161Z,34.73
2023-02-28T12:42:25.907Z,35.50
2023-02-28T12:44:59.029Z,35.56
2023-02-28T12:47:27.487Z,34.72
2023-02-28T12:49:59.763Z,34.74
2023-02-28T12:52:39.047Z,35.50
2023-02-28T12:55:15.811Z,35.20
2023-02-28T12:57:50.900Z,36.36
2023-02-28T13:00:23.612Z,36.24
2023-02-28T13:03:24.842Z,34.40
2023-02-28T13:06:10.364Z,35.33
2023-02-28T13:09:03.096Z,35.77
2023-02-28T13:11:42.398Z,34.34
2023-02-28T13:14:24.283Z,33.93
2023-02-28T13:17:02.197Z,34.11
2023-02-28T13:19:33.614Z,34.56
2023-02-28T13:22:02.759Z,33.50
2023-02-28T13:24:48.286Z,33.23
2023-02-28T13:27:35.973Z,33.54
2023-02-28T13:30:44.597Z,33.27
2023-02-28T13:33:28.153Z,33.96
2023-02-28T13:36:10.120Z,33.01
2023-02-28T13:38:43.594Z,33.60
2023-02-28T13:41:49.917Z,34.89
2023-02-28T13:44:31.562Z,36.48
2023-02-28T13:47:34.480Z,35.52
2023-02-28T13:50:25.380Z,35.59
2023-02-28T13:53:37.656Z,34.45
2023-02-28T13:56:12.176Z,34.88
2023-02-28T13:58:50.525Z,34.83
2023-02-28T14:01:40.304Z,34.87
2023-02-28T14:04:28.900Z,34.00
2023-02-28T14:06:59.501Z,35.27
2023-02-28T14:09:34.464Z,34.46
2023-02-28T14:12:35.727Z,35.05
2023-02-28T14:15:06.488Z,34.48
2023-02-28T14:17:34.793Z,34.32
2023-02-28T14:20:04.240Z,34.35
2023-02-28T14:22:52.688Z,34.31
2023-02-28T14:25:32.061Z,34.74
2023-02-28T14:28:12.316Z,33.37
2023-02-28T14:30:57.542Z,33.00
2023-02-28T14:33:50.820Z,33.03
2023-02-28T14:36:25.502Z,32.69
2023-02-28T14:38:57.411Z,32.88
2023-02-28T14:41:31.686Z,33.50
2023-02-28T14:44:02.569Z,33.10
2023-02-28T14:47:15.918Z,34.36
2023-02-28T14:50:03.005Z,34.86
2023-02-28T14:53:02.411Z,33.58
2023-02-28T14:56:31.438Z,34.34
2023-02-28T15:02:43.329Z,34.13
2023-02-28T15:05:44.312Z,33.90
2023-02-28T15:08:38.650Z,33.92
2023-02-28T15:12:04.165Z,33.83
2023-02-28T15:15:15.840Z,33.46
2023-02-28T15:18:08.645Z,33.01
2023-02-28T15:21:17.770Z,33.49
2023-02-28T15:26:54.670Z,33.59
2023-02-28T15:29:39.732Z,33.39
2023-02-28T15:36:46.147Z,34.06
2023-02-28T15:42:06.449Z,33.01
2023-02-28T15:59:12.495Z,33.85
2023-02-28T16:06:44.024Z,35.93
2023-02-28T16:15:00.966Z,33.59
2023-02-28T16:25:36.340Z,32.57
2023-02-28T16:48:52.012Z,34.90
2023-02-28T16:51:48.317Z,34.87
2023-02-28T16:55:46.279Z,36.44
2023-02-28T16:58:24.909Z,36.59
2023-02-28T17:01:52.875Z,36.50
2023-02-28T17:12:00.346Z,36.24
2023-02-28T17:15:10.324Z,36.57
2023-02-28T17:18:32.955Z,36.87
2023-02-28T17:38:24.800Z,37.22
2023-02-28T17:42:25.159Z,36.81
2023-02-28T17:50:11.775Z,37.46
2023-02-28T18:04:58.778Z,37.96
2023-02-28T18:19:20.260Z,38.97
2023-02-28T18:26:17.361Z,39.22
2023-02-28T18:33:21.301Z,39.90
2023-02-28T18:40:09.617Z,40.27
2023-02-28T18:43:16.514Z,40.55
2023-02-28T18:48:30.796Z,41.00
2023-02-28T18:54:15.000Z,41.66
2023-02-28T18:57:55.175Z,41.49
2023-02-28T19:08:28.633Z,41.65
2023-02-28T19:11:48.553Z,41.64
2023-02-28T19:14:18.824Z,42.07
2023-02-28T19:16:47.337Z,41.96
2023-02-28T19:19:17.483Z,42.45
2023-02-28T19:21:45.815Z,41.99
2023-02-28T19:24:13.932Z,41.75
2023-02-28T19:26:43.538Z,40.88
2023-02-28T19:29:13.372Z,41.40
2023-02-28T19:31:43.713Z,41.50
2023-02-28T19:34:24.363Z,41.90
2023-02-28T19:36:52.415Z,41.97
2023-02-28T19:39:20.798Z,41.22
2023-02-28T19:41:56.860Z,41.71
2023-02-28T19:44:24.837Z,41.16
2023-02-28T19:46:56.315Z,41.21
2023-02-28T19:49:25.997Z,41.55
2023-02-28T19:51:56.735Z,41.64
2023-02-28T19:54:25.822Z,41.00
2023-02-28T19:56:57.578Z,41.01
2023-02-28T19:59:35.859Z,41.87
2023-02-28T20:02:15.882Z,42.35
2023-02-28T20:04:47.492Z,42.30
2023-02-28T20:07:15.782Z,42.24
2023-02-28T20:09:44.775Z,41.87
2023-02-28T20:12:23.633Z,41.57
2023-02-28T20:18:00.999Z,41.92
2023-02-28T20:20:29.414Z,41.63
2023-02-28T20:23:21.955Z,41.45
2023-02-28T20:25:51.619Z,42.06
2023-02-28T20:28:21.686Z,42.77
2023-02-28T20:30:52.786Z,42.71
2023-02-28T20:33:21.674Z,41.56
2023-02-28T20:36:00.401Z,42.57
2023-02-28T20:38:28.844Z,43.22
2023-02-28T20:40:57.103Z,42.74
2023-02-28T20:43:29.773Z,43.15
2023-02-28T20:46:01.738Z,42.74
2023-02-28T20:48:35.779Z,41.90
2023-02-28T20:51:10.785Z,42.21
2023-02-28T20:53:48.531Z,42.58
2023-02-28T20:56:27.988Z,41.98
2023-02-28T20:59:00.015Z,42.79
2023-02-28T21:01:35.957Z,42.84
2023-02-28T21:04:09.257Z,42.52
2023-02-28T21:06:43.253Z,42.52
2023-02-28T21:09:16.275Z,43.65
2023-02-28T21:11:44.942Z,43.65
2023-02-28T21:14:16.649Z,44.07
2023-02-28T21:16:45.656Z,43.56
2023-02-28T21:19:14.687Z,43.37
2023-02-28T21:21:45.279Z,43.60
2023-02-28T21:24:15.273Z,43.40
2023-02-28T21:26:49.591Z,43.39
2023-02-28T21:29:19.688Z,43.78
2023-02-28T21:32:53.995Z,43.25
2023-02-28T21:35:25.776Z,43.65
2023-02-28T21:37:55.836Z,43.75
2023-02-28T21:40:23.839Z,43.38
2023-02-28T21:42:52.290Z,43.38
2023-02-28T21:45:21.606Z,43.55
2023-02-28T21:47:49.451Z,43.53
2023-02-28T21:50:17.881Z,42.67
2023-02-28T21:52:46.117Z,42.80
2023-02-28T21:55:14.218Z,43.05
2023-02-28T21:57:42.214Z,43.21
2023-02-28T22:00:12.022Z,44.15
2023-02-28T22:02:44.420Z,44.82
2023-02-28T22:05:12.601Z,45.22
2023-02-28T22:07:42.052Z,45.79
2023-02-28T22:10:11.460Z,45.16
2023-02-28T22:12:39.366Z,45.58
2023-02-28T22:15:08.615Z,44.70
2023-02-28T22:17:36.485Z,45.39
2023-02-28T22:20:13.120Z,45.49
2023-02-28T22:22:41.406Z,45.42
2023-02-28T22:25:10.808Z,45.48
2023-02-28T22:27:38.707Z,45.33
2023-02-28T22:30:07.674Z,45.94
2023-02-28T22:32:36.489Z,45.77
2023-02-28T22:35:06.339Z,46.00
2023-02-28T22:37:34.362Z,46.48
2023-02-28T22:40:02.251Z,46.42
2023-02-28T22:42:33.215Z,47.16
2023-02-28T22:45:01.126Z,46.50
2023-02-28T22:47:28.951Z,46.78
2023-02-28T22:49:56.955Z,46.26
2023-02-28T22:52:26.328Z,45.44
2023-02-28T22:54:54.294Z,45.60
2023-02-28T22:57:22.345Z,46.92
2023-02-28T22:59:50.374Z,46.61
2023-02-28T23:02:18.488Z,46.32
2023-02-28T23:04:46.711Z,46.13
2023-02-28T23:07:15.397Z,46.56
2023-02-28T23:09:44.748Z,46.66
2023-02-28T23:12:12.777Z,46.93
2023-02-28T23:14:40.712Z,47.19
2023-02-28T23:17:08.595Z,47.12
2023-02-28T23:19:36.842Z,47.15
2023-02-28T23:22:05.516Z,47.19
2023-02-28T23:24:35.564Z,46.98
2023-02-28T23:27:07.061Z,46.61
2023-02-28T23:29:35.817Z,46.79
2023-02-28T23:32:05.637Z,47.22
2023-02-28T23:34:33.802Z,46.75
2023-02-28T23:37:03.273Z,47.50
2023-02-28T23:39:32.402Z,47.22
2023-02-28T23:42:02.018Z,47.99
2023-02-28T23:44:31.965Z,47.41
2023-02-28T23:47:00.845Z,47.47
2023-02-28T23:49:28.837Z,47.80
2023-02-28T23:51:57.683Z,47.33
2023-02-28T23:54:25.965Z,47.68
2023-02-28T23:56:54.109Z,47.49
2023-02-28T23:59:22.004Z,47.45
